Time;durP1;ratioP1;P1;durP2;ratioP2;P2;SDS_P1;SDS_P2;PMS_P1;PMS_P2;Temp;Humidity;BMP_temperature;BMP_pressure;BME280_temperature;BME280_humidity;BME280_pressure;Samples;Min_cycle;Max_cycle;Signal;HPM_P1;HPM_P2
2021/12/22 00:00:17;;;;;;;18.57;11.97;;;;;;;-3.47;88.00;100398.03;4975235;28;20242;-80
2021/12/22 00:02:46;;;;;;;24.30;12.57;;;;;;;-3.43;87.78;100402.34;4976008;28;20606;-79
2021/12/22 00:05:17;;;;;;;22.17;12.20;;;;;;;-3.40;87.92;100398.94;4975498;28;20208;-80
2021/12/22 00:07:43;;;;;;;24.50;13.45;;;;;;;-3.41;87.60;100398.03;4975059;28;20361;-80
2021/12/22 00:10:08;;;;;;;25.33;12.90;;;;;;;-3.42;87.84;100387.78;4976892;28;20208;-80
2021/12/22 00:12:34;;;;;;;22.47;12.63;;;;;;;-3.47;87.46;100392.88;4972918;28;20216;-80
2021/12/22 00:14:59;;;;;;;26.87;14.27;;;;;;;-3.54;87.42;100392.81;4977943;28;20274;-80
2021/12/22 00:17:25;;;;;;;24.40;13.13;;;;;;;-3.72;87.39;100391.88;4975715;28;20218;-80
2021/12/22 00:19:50;;;;;;;23.10;12.80;;;;;;;-3.81;87.58;100402.06;4979284;28;20247;-80
2021/12/22 00:22:16;;;;;;;24.83;11.80;;;;;;;-3.84;87.69;100396.91;4996191;28;20215;-80
2021/12/22 00:24:41;;;;;;;25.27;12.73;;;;;;;-3.83;88.26;100398.66;4996749;28;20234;-80
2021/12/22 00:27:07;;;;;;;17.90;11.70;;;;;;;-3.82;87.93;100402.91;4997861;28;20213;-80
2021/12/22 00:29:33;;;;;;;22.75;11.93;;;;;;;-3.86;88.11;100402.03;4992629;28;20207;-80
2021/12/22 00:32:13;;;;;;;22.17;12.27;;;;;;;-3.92;87.79;100407.09;4997405;28;20318;-80
2021/12/22 00:34:51;;;;;;;21.20;11.68;;;;;;;-3.95;87.74;100406.22;4996387;28;20203;-80
2021/12/22 00:37:21;;;;;;;23.02;12.48;;;;;;;-4.02;88.07;100408.75;4988526;28;20295;-80
2021/12/22 00:39:47;;;;;;;23.42;12.75;;;;;;;-4.06;88.00;100412.13;4995712;28;20932;-80
2021/12/22 00:42:13;;;;;;;20.08;12.35;;;;;;;-4.14;88.23;100403.50;4989393;28;20218;-80
2021/12/22 00:44:41;;;;;;;16.90;10.52;;;;;;;-4.21;88.21;100406.88;4995585;28;20314;-80
2021/12/22 00:47:06;;;;;;;14.10;9.88;;;;;;;-4.27;88.05;100406.81;4991521;28;20643;-80
2021/12/22 00:49:32;;;;;;;26.87;14.20;;;;;;;-4.31;87.98;100413.63;4994477;28;20282;-80
2021/12/22 00:51:57;;;;;;;18.17;12.03;;;;;;;-4.40;88.13;100413.53;4995394;28;20663;-80
2021/12/22 00:54:23;;;;;;;19.23;13.10;;;;;;;-4.51;89.11;100405.75;4996824;28;20472;-80
2021/12/22 00:56:48;;;;;;;24.17;12.57;;;;;;;-4.57;89.19;100412.50;4996939;28;20218;-80
2021/12/22 00:59:16;;;;;;;18.70;12.90;;;;;;;-4.56;88.76;100404.84;4995867;28;20302;-80
2021/12/22 01:01:41;;;;;;;22.63;12.50;;;;;;;-4.51;88.92;100404.84;4995657;28;20211;-80
2021/12/22 01:04:07;;;;;;;24.10;12.63;;;;;;;-4.51;89.39;100398.06;4992492;28;20221;-80
2021/12/22 01:06:32;;;;;;;19.13;11.77;;;;;;;-4.48;88.83;100397.22;4994212;28;20229;-80
2021/12/22 01:08:57;;;;;;;18.60;12.07;;;;;;;-4.42;88.88;100392.16;4993890;28;20231;-80
2021/12/22 01:11:23;;;;;;;18.63;12.90;;;;;;;-4.39;89.11;100388.75;4991966;28;20307;-80
2021/12/22 01:13:49;;;;;;;18.63;13.17;;;;;;;-4.39;88.75;100388.75;4992742;28;20211;-80
2021/12/22 01:16:15;;;;;;;22.88;12.80;;;;;;;-4.37;89.14;100405.03;4977823;28;20254;-80
2021/12/22 01:18:41;;;;;;;19.40;12.57;;;;;;;-4.37;88.32;100395.63;5001952;28;20314;-79
2021/12/22 01:23:48;;;;;;;18.77;13.30;;;;;;;-4.31;88.38;100393.09;4995731;28;20481;-80
2021/12/22 01:26:13;;;;;;;26.88;12.50;;;;;;;-4.29;88.31;100399.13;4994683;28;20871;-81
2021/12/22 01:28:42;;;;;;;21.00;12.47;;;;;;;-4.32;87.93;100400.75;4991886;28;20214;-80
2021/12/22 01:31:13;;;;;;;24.33;13.90;;;;;;;-4.30;88.24;100399.94;4998965;28;20955;-80
2021/12/22 01:33:39;;;;;;;29.25;14.73;;;;;;;-4.28;88.36;100405.09;4994584;28;20644;-79
2021/12/22 01:36:05;;;;;;;17.13;11.47;;;;;;;-4.26;88.49;100401.69;4998428;28;20254;-79
2021/12/22 01:38:31;;;;;;;21.88;11.48;;;;;;;-4.24;88.40;100394.00;4995182;28;20230;-80
2021/12/22 01:40:56;;;;;;;18.93;12.30;;;;;;;-4.22;88.21;100405.16;5001399;28;20203;-80
2021/12/22 01:43:21;;;;;;;19.07;10.90;;;;;;;-4.17;88.34;100406.03;4996429;28;20906;-80
2021/12/22 01:51:30;;;;;;;22.20;11.60;;;;;;;-4.20;87.94;100403.47;4992397;28;20288;-80
2021/12/22 01:54:00;;;;;;;18.35;13.25;;;;;;;-4.25;87.79;100397.44;4997253;28;20228;-80
2021/12/22 01:56:28;;;;;;;30.50;14.73;;;;;;;-4.32;87.80;100388.84;4999405;28;20215;-80
2021/12/22 01:58:57;;;;;;;24.80;12.73;;;;;;;-4.35;87.73;100391.34;4995963;28;20274;-80
2021/12/22 02:01:24;;;;;;;29.33;17.25;;;;;;;-4.29;87.78;100386.28;4993152;28;20999;-80
2021/12/22 02:03:50;;;;;;;22.85;13.30;;;;;;;-4.26;87.80;100386.31;5000714;28;20682;-80
2021/12/22 02:06:17;;;;;;;19.50;12.52;;;;;;;-4.22;88.29;100398.31;4997165;28;20223;-80
2021/12/22 02:08:44;;;;;;;17.35;12.93;;;;;;;-4.26;87.75;100391.44;4998052;28;20208;-80
2021/12/22 02:11:11;;;;;;;24.80;13.52;;;;;;;-4.34;87.81;100385.38;4995891;28;20202;-77
2021/12/22 02:13:40;;;;;;;20.67;13.70;;;;;;;-4.41;87.55;100386.16;4992287;28;20208;-78
2021/12/22 02:16:13;;;;;;;24.42;12.57;;;;;;;-4.44;88.08;100383.56;4989094;28;20216;-77
2021/12/22 02:18:46;;;;;;;22.50;13.40;;;;;;;-4.45;87.99;100384.44;4984059;28;20273;-77
2021/12/22 02:21:12;;;;;;;23.10;14.80;;;;;;;-4.48;88.07;100384.41;4993340;28;20314;-78
2021/12/22 02:23:38;;;;;;;20.20;11.80;;;;;;;-4.51;88.15;100384.34;4993994;28;20219;-77
2021/12/22 02:26:12;;;;;;;45.08;13.52;;;;;;;-4.50;87.72;100378.38;4995887;28;20828;-78
2021/12/22 02:28:44;;;;;;;31.35;12.18;;;;;;;-4.60;87.56;100382.56;4994452;28;20254;-77
2021/12/22 02:31:14;;;;;;;21.40;13.10;;;;;;;-4.61;87.65;100377.44;4987431;28;20641;-78
2021/12/22 02:33:41;;;;;;;28.73;13.70;;;;;;;-4.56;87.97;100384.31;4989350;28;20203;-77
2021/12/22 02:36:39;;;;;;;30.98;14.70;;;;;;;-4.52;88.00;100382.63;4988933;28;20687;-77
2021/12/22 02:38:59;;;;;;;25.05;13.95;;;;;;;-4.56;88.07;100386.03;4996252;28;20234;-77
2021/12/22 02:41:28;;;;;;;17.23;10.70;;;;;;;-4.60;87.64;100389.38;4997725;28;20210;-77
2021/12/22 02:43:56;;;;;;;28.45;13.05;;;;;;;-4.60;88.09;100394.53;4991649;28;20207;-77
2021/12/22 02:46:30;;;;;;;21.52;13.13;;;;;;;-4.58;88.40;100387.72;4997763;28;20817;-78
2021/12/22 02:48:57;;;;;;;21.27;13.13;;;;;;;-4.55;88.48;100395.44;4988343;28;20222;-77
2021/12/22 02:51:22;;;;;;;20.30;12.48;;;;;;;-4.54;88.12;100389.44;4992700;28;20238;-77
2021/12/22 02:54:04;;;;;;;29.47;15.87;;;;;;;-4.57;87.96;100394.53;4986673;28;20513;-78
2021/12/22 03:04:10;;;;;;;23.75;14.98;;;;;;;-4.60;88.52;100404.78;4996704;28;20223;-80
2021/12/22 03:06:44;;;;;;;29.27;13.43;;;;;;;-4.58;88.47;100409.06;4996118;28;20213;-80
2021/12/22 03:09:16;;;;;;;28.38;13.98;;;;;;;-4.51;88.37;100409.97;5002918;28;20223;-80
2021/12/22 03:11:41;;;;;;;16.92;12.40;;;;;;;-4.42;88.91;100414.38;4994272;28;20219;-80
2021/12/22 03:14:07;;;;;;;36.37;15.83;;;;;;;-4.41;88.42;100408.38;4999428;28;20269;-81
2021/12/22 03:16:32;;;;;;;24.90;14.30;;;;;;;-4.42;88.12;100402.41;4996145;28;20212;-79
2021/12/22 03:18:58;;;;;;;22.63;14.23;;;;;;;-4.38;88.21;100411.81;4983705;28;20234;-80
2021/12/22 03:21:23;;;;;;;16.80;11.93;;;;;;;-4.32;88.25;100411.91;4992033;28;20302;-80
2021/12/22 03:23:51;;;;;;;25.93;13.60;;;;;;;-4.26;88.35;100411.97;4996954;28;20532;-80
2021/12/22 03:26:18;;;;;;;20.58;12.00;;;;;;;-4.24;88.13;100410.28;4994334;28;20298;-80
2021/12/22 03:28:45;;;;;;;23.92;14.35;;;;;;;-4.20;88.06;100412.88;4998627;28;20206;-80
2021/12/22 03:31:11;;;;;;;24.58;13.20;;;;;;;-4.18;88.14;100413.75;4988333;28;20203;-80
2021/12/22 03:33:36;;;;;;;23.90;13.40;;;;;;;-4.16;88.31;100414.59;4993910;28;20258;-80
2021/12/22 03:36:03;;;;;;;22.67;13.50;;;;;;;-4.14;88.09;100405.22;4991858;28;20459;-80
2021/12/22 03:38:30;;;;;;;25.95;14.57;;;;;;;-4.10;88.08;100407.84;4996194;28;20246;-80
2021/12/22 03:40:56;;;;;;;27.17;14.30;;;;;;;-4.10;87.82;100415.53;4998789;28;20213;-80
2021/12/22 03:43:21;;;;;;;25.80;13.50;;;;;;;-4.08;87.96;100418.09;4991406;28;20203;-80
2021/12/22 03:45:47;;;;;;;22.80;13.83;;;;;;;-4.07;87.74;100420.69;4993204;28;20605;-80
2021/12/22 03:48:16;;;;;;;26.27;14.50;;;;;;;-4.07;87.69;100422.41;4992104;28;20310;-80
2021/12/22 03:50:42;;;;;;;25.58;13.98;;;;;;;-4.09;87.69;100409.53;4997711;28;20218;-80
2021/12/22 03:53:07;;;;;;;29.50;14.23;;;;;;;-4.08;87.92;100415.53;4998413;28;20310;-80
2021/12/22 03:55:32;;;;;;;22.70;12.80;;;;;;;-4.06;87.58;100412.13;5002650;28;20218;-80
2021/12/22 03:57:58;;;;;;;27.13;14.63;;;;;;;-4.08;87.52;100411.28;5002882;28;20241;-80
2021/12/22 04:00:23;;;;;;;27.03;13.77;;;;;;;-4.10;87.59;100406.97;4991480;28;20215;-80
2021/12/22 04:02:49;;;;;;;26.53;14.60;;;;;;;-4.08;87.93;100407.81;5000599;28;20219;-80
2021/12/22 04:05:16;;;;;;;32.00;15.70;;;;;;;-4.01;87.64;100407.03;4981543;28;20302;-80
2021/12/22 04:07:42;;;;;;;28.02;14.43;;;;;;;-3.98;87.44;100394.25;4992569;28;20288;-80
2021/12/22 04:10:19;;;;;;;22.60;12.03;;;;;;;-3.99;87.72;100389.97;4976992;28;20204;-80
2021/12/22 04:12:49;;;;;;;30.80;14.70;;;;;;;-4.02;87.69;100397.63;5002353;28;20613;-80
2021/12/22 04:15:15;;;;;;;22.95;13.23;;;;;;;-4.06;87.46;100401.00;4998072;28;20290;-80
2021/12/22 04:17:40;;;;;;;29.57;13.70;;;;;;;-4.14;87.60;100402.66;5000690;28;20226;-80
2021/12/22 04:20:06;;;;;;;30.10;14.13;;;;;;;-4.23;87.88;100401.72;4997419;28;20251;-80
2021/12/22 04:22:32;;;;;;;29.75;15.90;;;;;;;-4.24;87.52;100402.59;4989785;28;20671;-80
2021/12/22 04:24:57;;;;;;;32.07;14.63;;;;;;;-4.26;87.62;100398.28;4996924;28;20207;-80
2021/12/22 04:27:22;;;;;;;26.20;14.07;;;;;;;-4.28;88.02;100400.81;4997136;28;20235;-80
2021/12/22 04:29:48;;;;;;;23.00;11.67;;;;;;;-4.26;87.93;100399.13;4991116;28;20205;-80
2021/12/22 04:32:13;;;;;;;24.57;13.40;;;;;;;-4.20;87.66;100395.75;5000062;28;20406;-80
2021/12/22 04:34:39;;;;;;;23.20;14.63;;;;;;;-4.16;87.89;100397.50;4992583;28;20215;-80
2021/12/22 04:37:04;;;;;;;31.90;14.83;;;;;;;-4.16;87.65;100381.25;4989863;28;20207;-80
2021/12/22 04:39:32;;;;;;;33.23;14.10;;;;;;;-4.18;87.68;100391.50;4996008;28;20361;-80
2021/12/22 04:41:59;;;;;;;22.05;13.88;;;;;;;-4.21;87.55;100373.53;4995039;28;20241;-80
2021/12/22 04:44:24;;;;;;;28.38;16.88;;;;;;;-4.24;87.49;100376.94;4995365;28;20762;-80
2021/12/22 04:46:49;;;;;;;27.47;14.87;;;;;;;-4.23;87.94;100381.19;4993217;28;20282;-80
2021/12/22 04:49:15;;;;;;;30.80;16.40;;;;;;;-4.16;87.72;100378.69;4992394;28;20228;-80
2021/12/22 04:51:48;;;;;;;22.37;13.23;;;;;;;-4.20;87.71;100379.53;4993329;28;20227;-80
2021/12/22 04:54:30;;;;;;;25.60;15.60;;;;;;;-4.23;87.55;100386.34;4996570;28;20207;-80
2021/12/22 04:56:57;;;;;;;25.58;15.80;;;;;;;-4.25;87.69;100380.31;5001429;28;20206;-80
2021/12/22 04:59:23;;;;;;;25.13;12.25;;;;;;;-4.23;87.23;100383.78;4995971;28;20226;-80
2021/12/22 05:01:48;;;;;;;24.85;14.32;;;;;;;-4.21;87.87;100381.22;4994175;28;20196;-80
2021/12/22 05:04:14;;;;;;;28.73;14.40;;;;;;;-4.23;87.56;100380.34;4998412;28;20679;-80
2021/12/22 05:06:39;;;;;;;29.07;15.07;;;;;;;-4.26;87.32;100381.19;4997881;28;20579;-80
2021/12/22 05:09:06;;;;;;;29.63;15.97;;;;;;;-4.26;87.81;100381.19;4994926;28;20364;-80
2021/12/22 05:11:33;;;;;;;25.73;13.70;;;;;;;-4.22;87.79;100382.91;4997790;28;20207;-80
2021/12/22 05:13:59;;;;;;;27.10;13.90;;;;;;;-4.17;87.35;100384.66;4998216;28;20716;-80
2021/12/22 05:16:24;;;;;;;29.80;16.67;;;;;;;-4.12;87.58;100385.56;4996133;28;20302;-80
2021/12/22 05:19:10;;;;;;;25.50;14.37;;;;;;;-4.12;87.37;100383.88;4997132;28;20525;-80
2021/12/22 05:21:36;;;;;;;30.48;15.82;;;;;;;-4.24;86.95;100384.63;4979159;28;20250;-81
2021/12/22 05:24:02;;;;;;;27.53;13.07;;;;;;;-4.34;87.23;100385.38;4972404;28;20216;-80
2021/12/22 05:26:28;;;;;;;28.45;13.25;;;;;;;-4.40;86.83;100387.91;4966931;28;20209;-80
2021/12/22 05:28:54;;;;;;;28.67;13.33;;;;;;;-4.46;87.04;100391.22;4976283;28;20207;-80
2021/12/22 05:31:21;;;;;;;23.60;12.73;;;;;;;-4.50;87.22;100397.19;4979811;28;20199;-80
2021/12/22 05:33:47;;;;;;;22.95;12.80;;;;;;;-4.52;87.18;100393.75;4978651;28;20573;-80
2021/12/22 05:36:12;;;;;;;21.80;13.50;;;;;;;-4.51;87.16;100389.47;4976588;28;20208;-80
2021/12/22 05:38:38;;;;;;;25.63;13.33;;;;;;;-4.51;87.82;100394.59;4975230;28;20313;-80
2021/12/22 05:41:03;;;;;;;24.77;12.23;;;;;;;-4.47;87.43;100393.81;4984697;28;20211;-80
2021/12/22 05:43:29;;;;;;;28.07;13.50;;;;;;;-4.43;87.51;100390.41;4982052;28;20314;-81
2021/12/22 05:45:54;;;;;;;26.87;14.50;;;;;;;-4.41;87.27;100388.72;4985117;28;20204;-81
2021/12/22 05:48:20;;;;;;;28.47;14.33;;;;;;;-4.42;87.51;100379.31;4978687;28;20224;-80
2021/12/22 05:50:51;;;;;;;25.47;13.57;;;;;;;-4.48;87.28;100379.28;4974896;28;20550;-80
2021/12/22 05:53:17;;;;;;;27.77;15.93;;;;;;;-4.50;87.48;100388.66;4977844;28;20574;-81
2021/12/22 05:55:42;;;;;;;23.80;14.83;;;;;;;-4.51;87.39;100386.91;4983062;28;20723;-80
2021/12/22 05:58:08;;;;;;;31.50;13.57;;;;;;;-4.51;87.17;100384.34;4971366;28;20270;-80
2021/12/22 06:00:34;;;;;;;32.57;14.10;;;;;;;-4.51;87.38;100394.59;4976699;28;20200;-81
2021/12/22 06:02:59;;;;;;;26.97;14.70;;;;;;;-4.52;87.91;100398.03;4982189;28;20442;-81
2021/12/22 06:05:25;;;;;;;25.53;12.23;;;;;;;-4.53;87.67;100399.72;4975350;28;20474;-81
2021/12/22 06:07:50;;;;;;;27.33;14.23;;;;;;;-4.52;87.39;100398.03;4978948;28;20228;-81
2021/12/22 06:10:16;;;;;;;25.63;13.23;;;;;;;-4.46;87.48;100393.78;4979612;28;20197;-81
2021/12/22 06:12:41;;;;;;;27.83;14.27;;;;;;;-4.40;87.67;100400.72;4985848;28;20222;-82
2021/12/22 06:15:07;;;;;;;22.27;14.40;;;;;;;-4.37;87.08;100400.75;4987681;28;20204;-83
2021/12/22 06:17:32;;;;;;;29.63;15.10;;;;;;;-4.37;87.08;100398.19;4980414;28;20269;-80
2021/12/22 06:19:58;;;;;;;33.73;15.60;;;;;;;-4.35;87.39;100399.03;4985437;28;20548;-80
2021/12/22 06:22:24;;;;;;;23.60;13.60;;;;;;;-4.34;87.13;100407.63;4993853;28;20567;-79
2021/12/22 06:24:49;;;;;;;31.13;15.73;;;;;;;-4.39;87.36;100412.69;4993019;28;20718;-79
2021/12/22 06:27:15;;;;;;;28.70;15.33;;;;;;;-4.50;87.41;100414.28;4994081;28;20234;-79
2021/12/22 06:29:40;;;;;;;27.23;14.73;;;;;;;-4.58;87.60;100408.22;4994569;28;20211;-79
2021/12/22 06:32:06;;;;;;;35.13;19.30;;;;;;;-4.51;87.91;100409.97;4993464;28;20581;-78
2021/12/22 06:34:31;;;;;;;34.83;16.80;;;;;;;-4.49;88.18;100408.31;4994469;28;20213;-80
2021/12/22 06:36:57;;;;;;;34.00;15.37;;;;;;;-4.50;88.17;100410.00;4995670;28;20480;-79
2021/12/22 06:39:23;;;;;;;29.80;14.50;;;;;;;-4.46;87.91;100404.06;4987963;28;20261;-80
2021/12/22 06:41:48;;;;;;;25.37;15.57;;;;;;;-4.41;87.99;100411.81;4988232;28;21065;-80
2021/12/22 06:44:15;;;;;;;23.00;13.33;;;;;;;-4.39;88.12;100412.69;4991627;28;20643;-78
2021/12/22 06:46:42;;;;;;;26.05;13.27;;;;;;;-4.34;87.78;100403.34;4994461;28;20227;-77
2021/12/22 06:49:09;;;;;;;29.30;16.20;;;;;;;-4.29;87.64;100411.09;4991612;28;20238;-82
2021/12/22 06:51:34;;;;;;;27.65;13.68;;;;;;;-4.29;87.15;100411.94;4993459;28;20709;-78
2021/12/22 06:54:00;;;;;;;26.30;12.97;;;;;;;-4.31;87.16;100407.63;4992727;28;20219;-80
2021/12/22 06:56:25;;;;;;;34.60;16.23;;;;;;;-4.35;87.33;100411.00;4992645;28;20640;-80
2021/12/22 06:58:51;;;;;;;30.87;16.20;;;;;;;-4.36;87.58;100415.28;4991230;28;20215;-79
2021/12/22 07:01:19;;;;;;;31.37;17.50;;;;;;;-4.30;87.55;100411.91;4995373;28;20494;-79
2021/12/22 07:03:45;;;;;;;35.42;18.00;;;;;;;-4.27;87.53;100411.94;4991531;28;20199;-81
2021/12/22 07:06:11;;;;;;;27.17;16.73;;;;;;;-4.28;87.35;100420.47;4993700;28;20207;-78
2021/12/22 07:08:36;;;;;;;31.67;13.80;;;;;;;-4.31;87.38;100428.16;4993738;28;20297;-78
2021/12/22 07:11:02;;;;;;;29.03;14.20;;;;;;;-4.31;87.18;100433.28;4993510;28;20276;-79
2021/12/22 07:13:28;;;;;;;25.33;13.37;;;;;;;-4.29;87.25;100434.16;4994076;28;20576;-79
2021/12/22 07:15:53;;;;;;;28.17;13.07;;;;;;;-4.30;86.92;100425.59;4993031;28;20204;-78
2021/12/22 07:18:19;;;;;;;23.33;13.50;;;;;;;-4.28;87.35;100428.19;4991528;28;20305;-79
2021/12/22 07:20:44;;;;;;;29.50;16.07;;;;;;;-4.26;86.93;100427.34;4994261;28;20243;-79
2021/12/22 07:23:09;;;;;;;33.33;14.23;;;;;;;-4.22;87.08;100429.09;4991116;28;20522;-80
2021/12/22 07:25:35;;;;;;;27.40;14.37;;;;;;;-4.18;86.69;100436.84;4993424;28;20199;-80
2021/12/22 07:28:00;;;;;;;22.90;13.20;;;;;;;-4.14;86.75;100448.84;4993784;28;20233;-79
2021/12/22 07:30:26;;;;;;;21.20;13.60;;;;;;;-4.15;86.75;100436.88;4993568;28;20234;-78
2021/12/22 07:32:52;;;;;;;21.90;13.00;;;;;;;-4.17;86.65;100441.09;4992839;28;20259;-78
2021/12/22 07:35:30;;;;;;;27.63;14.20;;;;;;;-4.17;86.50;100447.09;4994123;28;20454;-79
2021/12/22 07:38:31;;;;;;;21.98;11.93;;;;;;;-4.20;86.61;100441.94;4976749;28;20616;-79
2021/12/22 07:40:58;;;;;;;28.02;13.77;;;;;;;-4.27;86.23;100448.69;4994841;28;20294;-78
2021/12/22 07:43:25;;;;;;;22.65;14.20;;;;;;;-4.35;86.36;100445.19;4993690;28;20207;-78
2021/12/22 07:45:51;;;;;;;28.25;12.93;;;;;;;-4.45;86.31;100451.09;4994756;28;20691;-79
2021/12/22 07:48:17;;;;;;;27.98;14.52;;;;;;;-4.50;86.55;100448.47;4993360;28;20691;-79
2021/12/22 07:50:43;;;;;;;28.40;16.33;;;;;;;-4.51;86.80;100451.00;4994144;28;20405;-79
2021/12/22 07:53:08;;;;;;;28.35;15.13;;;;;;;-4.57;86.88;100453.50;4994895;28;20271;-80
2021/12/22 07:55:35;;;;;;;20.63;12.90;;;;;;;-4.60;86.84;100446.63;4995967;28;20488;-81
2021/12/22 07:58:00;;;;;;;34.47;14.40;;;;;;;-4.58;86.79;100449.25;4996434;28;20226;-81
2021/12/22 08:00:26;;;;;;;27.23;14.53;;;;;;;-4.55;86.76;100439.88;4975392;28;20203;-78
2021/12/22 08:02:51;;;;;;;28.93;13.17;;;;;;;-4.54;87.08;100438.16;4995085;28;20207;-78
2021/12/22 08:05:16;;;;;;;22.40;11.80;;;;;;;-4.53;86.68;100445.03;4993343;28;20495;-79
2021/12/22 08:07:42;;;;;;;31.27;14.07;;;;;;;-4.52;86.97;100447.59;4993830;28;20235;-78
2021/12/22 08:10:08;;;;;;;25.80;14.00;;;;;;;-4.56;86.51;100439.88;4992054;28;20213;-78
2021/12/22 08:12:34;;;;;;;29.20;16.67;;;;;;;-4.68;86.52;100441.41;4993321;28;21464;-79
2021/12/22 08:15:01;;;;;;;28.30;14.00;;;;;;;-4.71;86.55;100449.09;4993353;28;20210;-78
2021/12/22 08:17:31;;;;;;;20.85;12.35;;;;;;;-4.70;86.85;100448.25;4992373;28;20210;-78
2021/12/22 08:19:56;;;;;;;26.83;13.25;;;;;;;-4.70;86.57;100444.81;4991587;28;20305;-78
2021/12/22 08:22:22;;;;;;;21.77;13.07;;;;;;;-4.74;86.56;100443.06;4992714;28;20667;-78
2021/12/22 08:24:47;;;;;;;27.00;14.60;;;;;;;-4.79;86.61;100439.59;4992959;28;20489;-78
2021/12/22 08:27:13;;;;;;;23.70;13.80;;;;;;;-4.80;86.64;100431.03;4992459;28;20213;-78
2021/12/22 08:29:42;;;;;;;29.47;13.90;;;;;;;-4.71;86.35;100440.53;4994211;28;20298;-79
2021/12/22 08:32:09;;;;;;;22.20;13.35;;;;;;;-4.55;86.85;100442.44;4970914;28;20243;-78
2021/12/22 08:34:37;;;;;;;22.27;13.10;;;;;;;-4.39;86.21;100435.75;4973283;28;20237;-80
2021/12/22 08:39:48;;;;;;;28.55;15.07;;;;;;;-4.27;85.59;100441.00;4976195;28;20206;-77
2021/12/22 08:42:13;;;;;;;21.53;12.67;;;;;;;-4.22;85.49;100439.34;4963505;28;20200;-76
2021/12/22 08:44:39;;;;;;;27.20;14.70;;;;;;;-4.14;85.09;100438.56;4978505;28;20949;-77
2021/12/22 08:47:05;;;;;;;25.00;13.97;;;;;;;-4.14;84.81;100446.25;4975810;28;20215;-77
2021/12/22 08:49:30;;;;;;;26.48;15.05;;;;;;;-4.17;84.63;100434.25;4975650;28;20223;-77
2021/12/22 08:51:56;;;;;;;30.33;16.00;;;;;;;-4.16;85.06;100430.00;4976073;28;20275;-77
2021/12/22 08:54:22;;;;;;;23.00;11.83;;;;;;;-4.18;84.42;100427.44;4984289;28;20679;-73
2021/12/22 08:56:47;;;;;;;26.13;15.70;;;;;;;-4.22;84.83;100435.94;4972662;28;20278;-75
2021/12/22 08:59:14;;;;;;;27.07;14.60;;;;;;;-4.24;84.58;100443.63;5027375;23;20511;-77
2021/12/22 09:01:40;;;;;;;30.48;14.77;;;;;;;-4.22;84.86;100434.22;4950123;28;20494;-79
2021/12/22 09:04:06;;;;;;;31.42;14.90;;;;;;;-4.14;84.94;100433.44;4956500;28;20211;-73
2021/12/22 09:06:32;;;;;;;24.17;13.80;;;;;;;-4.12;84.88;100426.63;4963202;28;20215;-73
2021/12/22 09:08:58;;;;;;;26.30;14.90;;;;;;;-4.10;84.70;100433.50;4960580;28;20730;-73
2021/12/22 09:11:25;;;;;;;25.30;13.90;;;;;;;-4.10;84.36;100432.63;4954211;28;20836;-73
2021/12/22 09:13:51;;;;;;;29.23;15.98;;;;;;;-4.14;84.62;100441.13;4953746;28;20374;-76
2021/12/22 09:16:16;;;;;;;26.98;15.95;;;;;;;-4.16;84.75;100432.56;4954782;28;20529;-78
2021/12/22 09:18:42;;;;;;;23.37;14.73;;;;;;;-4.18;84.91;100439.41;4950658;28;20541;-74
2021/12/22 09:21:10;;;;;;;34.72;17.88;;;;;;;-4.12;84.67;100444.59;4951326;28;20213;-74
2021/12/22 09:23:36;;;;;;;36.50;15.52;;;;;;;-4.00;84.84;100442.09;4952116;28;20193;-77
2021/12/22 09:26:03;;;;;;;27.52;16.42;;;;;;;-3.84;84.77;100443.09;4952493;28;20213;-74
2021/12/22 09:28:28;;;;;;;28.05;14.70;;;;;;;-3.69;84.55;100439.81;4955215;28;20213;-73
2021/12/22 09:30:54;;;;;;;34.47;16.80;;;;;;;-3.51;83.97;100439.06;4952272;28;20220;-74
2021/12/22 09:33:20;;;;;;;31.57;17.80;;;;;;;-3.30;83.39;100438.34;4956578;28;20232;-73
2021/12/22 09:35:49;;;;;;;28.33;17.53;;;;;;;-3.12;83.08;100439.31;4958090;28;21852;-76
2021/12/22 09:38:16;;;;;;;25.83;14.82;;;;;;;-2.89;82.57;100436.00;4955944;28;20483;-74
2021/12/22 09:40:41;;;;;;;30.15;14.73;;;;;;;-2.71;81.92;100440.34;4945711;28;20221;-73
2021/12/22 09:43:11;;;;;;;31.03;16.50;;;;;;;-2.56;81.51;100430.13;4956302;28;20676;-73
2021/12/22 09:45:42;;;;;;;28.95;18.42;;;;;;;-2.41;81.09;100436.16;4957467;28;20208;-73
2021/12/22 09:50:46;;;;;;;35.63;18.60;;;;;;;-1.85;79.01;100431.09;4955656;28;20755;-74
2021/12/22 09:53:14;;;;;;;34.13;17.98;;;;;;;-0.92;76.80;100416.31;4957755;28;20224;-75
2021/12/22 09:55:40;;;;;;;28.13;16.55;;;;;;;0.39;73.42;100413.75;4956182;28;20530;-77
2021/12/22 09:58:05;;;;;;;31.75;17.08;;;;;;;1.66;69.52;100401.91;4956392;28;20550;-73
2021/12/22 10:00:34;;;;;;;30.60;17.90;;;;;;;2.81;65.51;100404.31;4964548;28;20279;-73
2021/12/22 10:03:01;;;;;;;28.17;17.05;;;;;;;3.66;61.92;100396.47;4963748;28;20683;-77
2021/12/22 10:05:26;;;;;;;32.65;16.85;;;;;;;4.17;60.16;100393.53;4966238;28;20550;-76
2021/12/22 10:08:10;;;;;;;25.77;16.70;;;;;;;4.49;59.08;100404.88;4965052;28;20364;-77
2021/12/22 10:10:44;;;;;;;27.20;17.13;;;;;;;4.39;58.78;100398.19;4966129;28;20231;-79
2021/12/22 10:13:12;;;;;;;31.55;16.55;;;;;;;3.79;58.97;100401.41;4964816;28;20597;-73
2021/12/22 10:15:38;;;;;;;25.75;17.05;;;;;;;3.31;60.95;100389.47;4963041;28;20227;-76
2021/12/22 10:18:08;;;;;;;25.95;16.88;;;;;;;2.83;61.55;100398.19;4967402;28;20211;-78
2021/12/22 10:20:33;;;;;;;185.40;87.78;;;;;;;2.30;63.20;100396.59;4964095;28;20228;-78
2021/12/22 10:22:59;;;;;;;353.93;153.60;;;;;;;1.74;64.36;100399.22;4964514;28;20200;-73
2021/12/22 10:25:28;;;;;;;36.77;24.03;;;;;;;1.16;66.24;100397.41;4965011;28;20570;-74
2021/12/22 10:28:04;;;;;;;38.90;29.80;;;;;;;0.68;67.74;100394.53;4964309;28;20523;-72
2021/12/22 10:30:37;;;;;;;60.47;43.00;;;;;;;0.21;68.83;100391.50;4964567;28;20226;-74
2021/12/22 10:33:05;;;;;;;39.92;25.23;;;;;;;-0.17;70.15;100379.75;4962873;28;20697;-75
2021/12/22 10:35:33;;;;;;;39.30;24.90;;;;;;;-0.58;71.30;100383.47;4963708;28;20251;-76
2021/12/22 10:38:00;;;;;;;77.65;53.22;;;;;;;-0.90;72.42;100378.47;4965507;28;20216;-73
2021/12/22 10:40:30;;;;;;;45.10;26.70;;;;;;;-1.07;72.81;100375.13;4962319;28;20319;-74
2021/12/22 10:42:56;;;;;;;29.38;19.33;;;;;;;-1.25;73.93;100371.75;4964733;28;20200;-72
2021/12/22 10:45:23;;;;;;;25.88;16.50;;;;;;;-1.48;74.76;100376.13;4960620;28;20208;-78
2021/12/22 10:50:36;;;;;;;24.38;14.57;;;;;;;-1.73;75.54;100367.56;4964099;28;20220;-75
2021/12/22 10:53:02;;;;;;;24.30;14.97;;;;;;;-1.80;75.80;100361.56;4962720;28;20224;-76
2021/12/22 10:55:43;;;;;;;20.52;12.60;;;;;;;-1.90;76.05;100355.56;4962989;28;20602;-73
2021/12/22 10:58:18;;;;;;;22.05;13.45;;;;;;;-1.98;76.55;100353.84;4962522;28;20208;-72
2021/12/22 11:00:43;;;;;;;29.23;16.10;;;;;;;-2.07;76.70;100345.28;4965468;28;20239;-72
2021/12/22 11:03:14;;;;;;;26.93;15.10;;;;;;;-2.22;77.98;100347.84;4964737;28;20854;-74
2021/12/22 11:05:47;;;;;;;26.60;15.43;;;;;;;-2.33;78.87;100334.13;4961651;28;20464;-77
2021/12/22 11:08:24;;;;;;;25.83;15.27;;;;;;;-2.43;79.33;100342.69;4964167;28;20211;-76
2021/12/22 11:10:50;;;;;;;31.77;16.65;;;;;;;-2.41;79.38;100335.84;4962856;28;20208;-75
2021/12/22 11:13:21;;;;;;;27.80;15.10;;;;;;;-2.37;79.18;100332.41;4965103;28;20236;-76
2021/12/22 11:15:47;;;;;;;21.90;14.18;;;;;;;-2.36;79.38;100326.41;4964228;28;20208;-72
2021/12/22 11:18:27;;;;;;;23.70;15.07;;;;;;;-2.32;79.18;100313.56;4963368;28;20351;-72
2021/12/22 11:21:22;;;;;;;23.60;15.65;;;;;;;-2.21;79.16;100318.69;4962807;28;20478;-72
2021/12/22 11:23:48;;;;;;;23.70;14.23;;;;;;;-2.10;78.82;100309.25;4964189;28;20439;-74
2021/12/22 11:26:14;;;;;;;24.53;15.57;;;;;;;-1.99;78.90;100308.38;4961069;28;20287;-75
2021/12/22 11:28:40;;;;;;;21.85;13.65;;;;;;;-1.89;78.49;100310.06;4962839;28;20235;-72
2021/12/22 11:31:08;;;;;;;27.25;16.80;;;;;;;-1.83;78.28;100302.34;4963488;28;20853;-72
2021/12/22 11:33:34;;;;;;;25.17;14.15;;;;;;;-1.75;78.38;100307.50;4965526;28;20212;-77